createdAt,value
2022-11-06T00:01:22.804Z,1.80
2022-11-06T00:03:56.131Z,1.50
2022-11-06T00:06:44.464Z,1.80
2022-11-06T00:09:16.745Z,1.20
2022-11-06T00:11:51.056Z,1.73
2022-11-06T00:14:22.122Z,1.93
2022-11-06T00:16:56.204Z,1.70
2022-11-06T00:19:27.686Z,1.50
2022-11-06T00:21:58.729Z,1.40
2022-11-06T00:24:31.193Z,1.90
2022-11-06T00:27:04.289Z,2.03
2022-11-06T00:29:35.854Z,2.33
2022-11-06T00:32:09.304Z,1.73
2022-11-06T00:34:40.967Z,1.63
2022-11-06T00:37:12.811Z,2.43
2022-11-06T00:39:43.848Z,2.03
2022-11-06T00:42:16.980Z,1.90
2022-11-06T00:44:47.847Z,1.93
2022-11-06T00:47:18.913Z,1.87
2022-11-06T00:49:51.299Z,1.53
2022-11-06T00:52:23.286Z,2.00
2022-11-06T00:54:54.335Z,1.90
2022-11-06T00:57:27.290Z,1.93
2022-11-06T00:59:58.793Z,2.10
2022-11-06T01:02:30.068Z,2.20
2022-11-06T01:05:03.249Z,2.07
2022-11-06T01:07:34.938Z,2.37
2022-11-06T01:10:07.058Z,2.20
2022-11-06T01:12:40.137Z,1.90
2022-11-06T01:15:12.049Z,2.53
2022-11-06T01:17:43.133Z,2.43
2022-11-06T01:20:14.788Z,3.03
2022-11-06T01:22:46.331Z,2.87
2022-11-06T01:25:17.537Z,3.03
2022-11-06T01:27:51.152Z,3.33
2022-11-06T01:30:22.277Z,3.17
2022-11-06T01:32:53.378Z,2.40
2022-11-06T01:35:24.407Z,2.47
2022-11-06T01:37:55.450Z,2.27
2022-11-06T01:40:26.694Z,2.40
2022-11-06T01:43:00.479Z,2.47
2022-11-06T01:45:38.468Z,2.47
2022-11-06T01:48:10.931Z,2.47
2022-11-06T01:50:44.978Z,2.07
2022-11-06T01:53:19.090Z,2.07
2022-11-06T01:55:54.202Z,1.93
2022-11-06T01:58:33.354Z,2.33
2022-11-06T02:01:05.389Z,2.00
2022-11-06T02:03:36.761Z,1.60
2022-11-06T02:06:10.074Z,1.77
2022-11-06T02:08:42.531Z,1.50
2022-11-06T02:11:14.355Z,1.70
2022-11-06T02:13:56.455Z,2.07
2022-11-06T02:16:37.147Z,1.57
2022-11-06T02:19:39.190Z,1.60
2022-11-06T02:22:32.275Z,1.97
2022-11-06T02:25:17.190Z,1.73
2022-11-06T02:27:56.283Z,1.83
2022-11-06T02:30:27.467Z,1.77
2022-11-06T02:33:01.557Z,1.80
2022-11-06T02:35:35.858Z,2.27
2022-11-06T02:38:10.718Z,1.83
2022-11-06T02:40:46.853Z,2.23
2022-11-06T02:43:21.443Z,2.13
2022-11-06T02:45:58.330Z,2.03
2022-11-06T02:48:34.417Z,1.70
2022-11-06T02:51:09.980Z,2.23
2022-11-06T02:53:43.781Z,1.90
2022-11-06T02:56:18.941Z,2.03
2022-11-06T02:58:57.407Z,1.90
2022-11-06T03:01:34.628Z,1.80
2022-11-06T03:04:09.992Z,1.53
2022-11-06T03:06:45.461Z,1.80
2022-11-06T03:09:19.744Z,1.70
2022-11-06T03:11:55.946Z,1.63
2022-11-06T03:14:35.828Z,2.13
2022-11-06T03:17:15.504Z,1.77
2022-11-06T03:19:53.143Z,1.70
2022-11-06T03:22:33.370Z,1.43
2022-11-06T03:25:11.617Z,1.60
2022-11-06T03:27:47.839Z,1.80
2022-11-06T03:30:21.181Z,1.50
2022-11-06T03:32:57.469Z,1.40
2022-11-06T03:35:33.181Z,1.53
2022-11-06T03:38:09.223Z,1.70
2022-11-06T03:40:47.149Z,1.60
2022-11-06T03:43:22.184Z,1.47
2022-11-06T03:45:56.585Z,1.90
2022-11-06T03:48:33.489Z,1.57
2022-11-06T03:51:11.124Z,1.40
2022-11-06T03:53:49.289Z,1.30
2022-11-06T03:56:23.449Z,1.50
2022-11-06T03:58:56.303Z,1.47
2022-11-06T04:01:36.205Z,1.90
2022-11-06T04:04:13.521Z,1.53
2022-11-06T04:06:50.599Z,1.63
2022-11-06T04:09:41.406Z,2.03
2022-11-06T04:12:47.752Z,1.77
2022-11-06T04:15:20.920Z,1.60
2022-11-06T04:17:56.704Z,1.93
2022-11-06T04:20:48.980Z,1.60
2022-11-06T04:23:29.898Z,1.60
2022-11-06T04:26:23.936Z,1.23
2022-11-06T04:29:03.013Z,1.63
2022-11-06T04:31:40.701Z,1.63
2022-11-06T04:34:20.180Z,1.70
2022-11-06T04:36:57.606Z,1.73
2022-11-06T04:39:38.445Z,1.87
2022-11-06T04:42:14.852Z,2.07
2022-11-06T04:44:50.468Z,2.10
2022-11-06T04:47:24.577Z,1.70
2022-11-06T04:50:02.175Z,2.47
2022-11-06T04:52:33.541Z,2.37
2022-11-06T04:55:05.760Z,1.70
2022-11-06T04:57:37.210Z,1.87
2022-11-06T05:00:09.321Z,1.70
2022-11-06T05:02:41.419Z,2.27
2022-11-06T05:05:16.246Z,1.50
2022-11-06T05:07:47.274Z,1.90
2022-11-06T05:10:18.452Z,1.93
2022-11-06T05:12:51.881Z,2.50
2022-11-06T05:15:24.242Z,1.87
2022-11-06T05:17:56.096Z,1.80
2022-11-06T05:20:29.584Z,2.17
2022-11-06T05:22:59.442Z,1.97
2022-11-06T05:25:32.672Z,1.83
2022-11-06T05:28:06.123Z,1.53
2022-11-06T05:30:37.941Z,1.30
2022-11-06T05:33:09.496Z,2.33
2022-11-06T05:35:42.662Z,1.83
2022-11-06T05:38:13.871Z,1.70
2022-11-06T05:40:47.021Z,1.87
2022-11-06T05:43:18.212Z,1.90
2022-11-06T05:45:49.352Z,1.40
2022-11-06T05:48:20.546Z,2.27
2022-11-06T05:50:53.714Z,2.47
2022-11-06T05:53:26.089Z,2.00
2022-11-06T05:55:58.084Z,2.57
2022-11-06T05:58:29.632Z,2.07
2022-11-06T06:01:01.529Z,1.77
2022-11-06T06:03:33.298Z,1.60
2022-11-06T06:06:07.317Z,2.03
2022-11-06T06:08:39.169Z,1.87
2022-11-06T06:11:11.925Z,1.97
2022-11-06T06:13:43.003Z,1.90
2022-11-06T06:16:14.021Z,1.77
2022-11-06T06:18:45.740Z,1.70
2022-11-06T06:21:19.077Z,1.60
2022-11-06T06:23:50.324Z,1.60
2022-11-06T06:26:21.440Z,1.90
2022-11-06T06:28:53.190Z,2.00
2022-11-06T06:31:24.607Z,1.53
2022-11-06T06:34:01.179Z,1.80
2022-11-06T06:36:35.277Z,1.60
2022-11-06T06:39:08.843Z,1.67
2022-11-06T06:41:39.929Z,1.63
2022-11-06T06:44:11.155Z,2.13
2022-11-06T06:46:43.378Z,1.93
2022-11-06T06:49:14.924Z,1.60
2022-11-06T06:51:48.947Z,2.00
2022-11-06T06:54:20.782Z,1.57
2022-11-06T06:56:52.020Z,1.20
2022-11-06T06:59:23.589Z,1.43
2022-11-06T07:01:55.188Z,1.67
2022-11-06T07:04:28.630Z,1.30
2022-11-06T07:07:01.838Z,1.87
2022-11-06T07:09:34.581Z,1.90
2022-11-06T07:12:05.727Z,1.70
2022-11-06T07:14:37.682Z,1.43
2022-11-06T07:17:08.720Z,1.70
2022-11-06T07:19:40.508Z,1.53
2022-11-06T07:22:13.487Z,1.30
2022-11-06T07:24:46.573Z,1.50
2022-11-06T07:27:18.666Z,1.40
2022-11-06T07:29:49.826Z,1.17
2022-11-06T07:32:20.949Z,1.00
2022-11-06T07:34:51.978Z,1.13
2022-11-06T07:37:29.875Z,1.40
2022-11-06T07:40:02.253Z,1.23
2022-11-06T07:42:34.181Z,1.20
2022-11-06T07:45:05.277Z,1.23
2022-11-06T07:47:39.992Z,1.07
2022-11-06T07:50:15.172Z,1.50
2022-11-06T07:52:48.154Z,1.13
2022-11-06T07:55:19.419Z,0.93
2022-11-06T07:57:50.594Z,0.90
2022-11-06T08:00:22.049Z,1.10
2022-11-06T08:02:56.355Z,0.90
2022-11-06T08:05:28.510Z,1.37
2022-11-06T08:08:03.637Z,1.40
2022-11-06T08:10:38.774Z,1.03
2022-11-06T08:13:13.073Z,1.10
2022-11-06T08:15:47.118Z,1.30
2022-11-06T08:18:18.277Z,1.10
2022-11-06T08:20:49.959Z,1.43
2022-11-06T08:23:25.794Z,1.10
2022-11-06T08:26:00.113Z,1.37
2022-11-06T08:28:31.595Z,1.33
2022-11-06T08:31:06.728Z,1.03
2022-11-06T08:33:38.711Z,1.00
2022-11-06T08:36:13.353Z,1.00
2022-11-06T08:38:50.226Z,1.10
2022-11-06T08:41:22.065Z,1.00
2022-11-06T08:43:55.366Z,1.73
2022-11-06T08:46:28.268Z,1.00
2022-11-06T08:48:59.293Z,0.93
2022-11-06T08:51:34.487Z,1.20
2022-11-06T08:54:08.457Z,0.80
2022-11-06T08:56:39.702Z,0.90
2022-11-06T08:59:10.842Z,1.10
2022-11-06T09:01:41.977Z,0.97
2022-11-06T09:04:13.359Z,1.10
2022-11-06T09:06:44.434Z,0.73
2022-11-06T09:09:20.938Z,0.80
2022-11-06T09:11:51.839Z,1.00
2022-11-06T09:14:25.313Z,1.07
2022-11-06T09:16:57.064Z,1.00
2022-11-06T09:19:28.120Z,0.80
2022-11-06T09:21:59.187Z,0.83
2022-11-06T09:25:01.253Z,1.10
2022-11-06T09:27:24.661Z,0.93
2022-11-06T09:29:55.731Z,0.83
2022-11-06T09:32:26.725Z,0.80
2022-11-06T09:35:01.378Z,0.93
2022-11-06T09:37:34.695Z,1.33
2022-11-06T09:40:08.846Z,0.80
2022-11-06T09:42:53.010Z,0.80
2022-11-06T09:45:33.133Z,0.90
2022-11-06T09:48:09.670Z,1.00
2022-11-06T09:50:44.400Z,1.00
2022-11-06T09:53:20.812Z,1.10
2022-11-06T09:55:58.086Z,0.87
2022-11-06T09:58:34.327Z,1.00
2022-11-06T10:01:27.118Z,0.90
2022-11-06T10:04:01.715Z,0.70
2022-11-06T10:06:33.263Z,0.73
2022-11-06T10:09:06.317Z,1.07
2022-11-06T10:11:52.554Z,0.57
2022-11-06T10:14:39.357Z,0.97
2022-11-06T10:17:21.992Z,1.00
2022-11-06T10:19:58.688Z,0.73
2022-11-06T10:22:36.497Z,0.60
2022-11-06T10:25:23.518Z,0.40
2022-11-06T10:28:05.132Z,0.40
2022-11-06T10:30:43.556Z,0.40
2022-11-06T10:33:29.897Z,0.53
2022-11-06T10:36:06.695Z,0.57
2022-11-06T10:38:44.602Z,0.53
2022-11-06T10:41:21.946Z,0.80
2022-11-06T10:44:00.363Z,0.90
2022-11-06T10:46:39.634Z,0.40
2022-11-06T10:49:22.803Z,0.53
2022-11-06T10:52:09.056Z,0.70
2022-11-06T10:54:52.027Z,0.60
2022-11-06T10:57:31.761Z,0.90
2022-11-06T11:00:05.652Z,0.57
2022-11-06T11:02:43.547Z,0.40
2022-11-06T11:05:16.488Z,0.57
2022-11-06T11:07:49.652Z,0.50
2022-11-06T11:10:32.417Z,0.40
2022-11-06T11:13:08.417Z,0.40
2022-11-06T11:15:48.116Z,0.33
2022-11-06T11:18:31.834Z,0.57
2022-11-06T11:21:18.701Z,0.40
2022-11-06T11:24:07.651Z,0.40
2022-11-06T11:26:42.453Z,0.60
2022-11-06T11:29:20.321Z,0.30
2022-11-06T11:31:56.267Z,0.30
2022-11-06T11:34:30.203Z,0.30
2022-11-06T11:37:04.314Z,0.50
2022-11-06T11:39:37.527Z,0.33
2022-11-06T11:42:29.083Z,0.37
2022-11-06T11:45:21.081Z,0.40
2022-11-06T11:47:56.483Z,0.30
2022-11-06T11:50:34.559Z,0.40
2022-11-06T11:53:15.166Z,0.50
2022-11-06T11:55:48.599Z,0.20
2022-11-06T11:58:26.431Z,0.20
2022-11-06T12:01:02.431Z,0.40
2022-11-06T12:03:37.905Z,0.40
2022-11-06T12:06:12.946Z,0.40
2022-11-06T12:08:55.269Z,0.50
2022-11-06T12:11:29.004Z,0.63
2022-11-06T12:14:28.889Z,0.37
2022-11-06T12:17:04.602Z,0.33
2022-11-06T12:19:42.666Z,0.50
2022-11-06T12:22:21.272Z,0.40
2022-11-06T12:24:57.271Z,0.30
2022-11-06T12:27:31.869Z,0.50
2022-11-06T12:30:08.229Z,0.30
2022-11-06T12:32:48.584Z,0.40
2022-11-06T12:35:28.702Z,0.50
2022-11-06T12:38:14.839Z,0.30
2022-11-06T12:40:51.940Z,0.30
2022-11-06T12:43:30.795Z,0.40
2022-11-06T12:46:26.998Z,0.57
2022-11-06T12:49:21.974Z,0.50
2022-11-06T12:52:04.744Z,0.57
2022-11-06T12:54:49.820Z,0.63
2022-11-06T12:57:31.718Z,0.40
2022-11-06T13:00:12.512Z,0.30
2022-11-06T13:03:14.232Z,0.30
2022-11-06T13:05:56.282Z,0.30
2022-11-06T13:08:37.104Z,0.30
2022-11-06T13:11:25.027Z,0.40
2022-11-06T13:14:16.471Z,0.40
2022-11-06T13:16:56.707Z,0.33
2022-11-06T13:19:32.293Z,0.30
2022-11-06T13:22:15.140Z,0.50
2022-11-06T13:24:53.978Z,0.20
2022-11-06T13:27:32.655Z,0.37
2022-11-06T13:30:08.287Z,0.40
2022-11-06T13:32:41.876Z,0.30
2022-11-06T13:35:18.982Z,0.50
2022-11-06T13:37:55.090Z,0.40
2022-11-06T13:40:37.143Z,0.20
2022-11-06T13:43:15.142Z,0.30
2022-11-06T13:45:52.984Z,0.30
2022-11-06T13:48:38.006Z,0.30
2022-11-06T13:51:16.735Z,0.30
2022-11-06T13:53:58.560Z,0.20
2022-11-06T13:57:06.724Z,0.30
2022-11-06T14:00:04.903Z,0.60
2022-11-06T14:03:06.950Z,0.40
2022-11-06T14:05:56.316Z,0.30
2022-11-06T14:08:31.202Z,0.40
2022-11-06T14:11:05.363Z,0.20
2022-11-06T14:13:40.025Z,0.20
2022-11-06T14:16:31.694Z,0.30
2022-11-06T14:19:07.102Z,0.30
2022-11-06T14:21:52.533Z,0.50
2022-11-06T14:24:42.280Z,0.67
2022-11-06T14:27:16.696Z,0.27
2022-11-06T14:30:09.082Z,0.83
2022-11-06T14:32:46.044Z,0.50
2022-11-06T14:35:53.924Z,0.30
2022-11-06T14:38:45.966Z,0.60
2022-11-06T14:41:57.915Z,0.40
2022-11-06T14:44:49.865Z,0.30
2022-11-06T14:47:34.182Z,0.40
2022-11-06T14:50:09.630Z,0.33
2022-11-06T14:52:49.160Z,0.40
2022-11-06T14:55:42.272Z,0.37
2022-11-06T14:58:22.245Z,0.23
2022-11-06T15:00:56.333Z,0.33
2022-11-06T15:03:37.020Z,0.70
2022-11-06T15:06:25.287Z,0.80
2022-11-06T15:08:59.357Z,0.30
2022-11-06T15:12:03.627Z,0.30
2022-11-06T15:15:13.463Z,0.30
2022-11-06T15:17:45.192Z,0.63
2022-11-06T15:20:31.748Z,1.03
2022-11-06T15:23:27.625Z,0.40
2022-11-06T15:26:08.371Z,0.20
2022-11-06T15:28:52.392Z,0.50
2022-11-06T15:31:25.271Z,0.50
2022-11-06T15:34:03.191Z,0.30
2022-11-06T15:36:40.902Z,0.30
2022-11-06T15:39:43.853Z,0.30
2022-11-06T15:42:19.785Z,0.30
2022-11-06T15:44:51.981Z,0.80
2022-11-06T15:47:26.338Z,0.30
2022-11-06T15:50:18.259Z,0.30
2022-11-06T15:52:51.984Z,0.30
2022-11-06T15:55:31.530Z,0.40
2022-11-06T15:58:12.709Z,2.10
2022-11-06T16:00:45.235Z,0.20
2022-11-06T16:03:18.954Z,0.33
2022-11-06T16:05:50.518Z,0.50
2022-11-06T16:08:25.687Z,0.30
2022-11-06T16:10:58.182Z,0.30
2022-11-06T16:13:30.539Z,0.30
2022-11-06T16:16:04.016Z,0.13
2022-11-06T16:18:42.012Z,0.40
2022-11-06T16:21:17.489Z,0.40
2022-11-06T16:23:54.063Z,0.30
2022-11-06T16:26:28.803Z,0.23
2022-11-06T16:29:00.279Z,0.23
2022-11-06T16:31:34.971Z,0.87
2022-11-06T16:34:07.854Z,0.50
2022-11-06T16:36:55.962Z,0.40
2022-11-06T16:39:49.249Z,0.30
2022-11-06T16:42:32.033Z,0.30
2022-11-06T16:45:14.751Z,0.20
2022-11-06T16:47:45.450Z,0.40
2022-11-06T16:50:45.387Z,0.30
2022-11-06T16:53:22.503Z,0.30
2022-11-06T16:56:10.369Z,0.20
2022-11-06T16:58:54.921Z,0.20
2022-11-06T17:01:28.371Z,0.23
2022-11-06T17:04:03.783Z,0.20
2022-11-06T17:06:36.581Z,0.20
2022-11-06T17:09:10.855Z,0.27
2022-11-06T17:11:44.395Z,0.40
2022-11-06T17:14:22.483Z,0.30
2022-11-06T17:16:55.115Z,0.33
2022-11-06T17:19:27.368Z,0.30
2022-11-06T17:21:59.254Z,0.30
2022-11-06T17:24:38.662Z,0.20
2022-11-06T17:27:13.357Z,1.10
2022-11-06T17:29:44.373Z,1.40
2022-11-06T17:32:16.493Z,0.70
2022-11-06T17:34:48.803Z,0.30
2022-11-06T17:37:22.973Z,0.60
2022-11-06T17:39:54.840Z,0.47
2022-11-06T17:42:28.477Z,0.20
2022-11-06T17:45:00.977Z,0.40
2022-11-06T17:47:31.998Z,0.40
2022-11-06T17:50:03.524Z,0.20
2022-11-06T17:52:35.260Z,1.13
2022-11-06T17:55:08.939Z,0.40
2022-11-06T17:57:43.190Z,0.27
2022-11-06T18:00:16.182Z,0.30
2022-11-06T18:03:01.027Z,0.30
2022-11-06T18:05:32.897Z,0.40
2022-11-06T18:08:04.748Z,0.40
2022-11-06T18:10:35.970Z,0.30
2022-11-06T18:13:09.787Z,0.30
2022-11-06T18:15:40.981Z,0.40
2022-11-06T18:18:12.420Z,0.40
2022-11-06T18:20:48.157Z,0.40
2022-11-06T18:23:19.212Z,0.40
2022-11-06T18:25:59.032Z,0.43
2022-11-06T18:28:32.600Z,0.40
2022-11-06T18:31:03.956Z,0.57
2022-11-06T18:33:35.305Z,0.50
2022-11-06T18:36:08.484Z,0.40
2022-11-06T18:38:40.029Z,0.47
2022-11-06T18:41:12.007Z,0.30
2022-11-06T18:43:45.638Z,0.33
2022-11-06T18:46:18.761Z,0.50
2022-11-06T18:48:49.971Z,0.43
2022-11-06T18:51:34.678Z,0.60
2022-11-06T18:54:08.947Z,0.70
2022-11-06T18:56:40.375Z,0.50
2022-11-06T18:59:20.523Z,0.40
2022-11-06T19:01:52.553Z,0.33
2022-11-06T19:04:24.127Z,0.40
2022-11-06T19:06:55.532Z,0.30
2022-11-06T19:09:26.708Z,0.60
2022-11-06T19:11:58.554Z,0.20
2022-11-06T19:14:32.460Z,0.40
2022-11-06T19:17:04.302Z,0.20
2022-11-06T19:19:35.399Z,0.30
2022-11-06T19:22:09.806Z,0.30
2022-11-06T19:24:43.350Z,0.43
2022-11-06T19:27:15.044Z,0.40
2022-11-06T19:29:49.290Z,0.40
2022-11-06T19:32:22.104Z,0.60
2022-11-06T19:34:53.193Z,0.50
2022-11-06T19:37:24.863Z,0.33
2022-11-06T19:39:56.180Z,0.43
2022-11-06T19:42:28.345Z,0.40
2022-11-06T19:45:04.090Z,0.67
2022-11-06T19:47:35.685Z,0.50
2022-11-06T19:50:07.855Z,0.40
2022-11-06T19:52:42.127Z,0.53
2022-11-06T19:55:25.512Z,0.40
2022-11-06T19:58:00.229Z,0.50
2022-11-06T20:00:33.358Z,0.60
2022-11-06T20:03:05.470Z,0.37
2022-11-06T20:05:36.899Z,0.43
2022-11-06T20:08:10.475Z,0.60
2022-11-06T20:10:44.311Z,0.67
2022-11-06T20:13:18.256Z,0.70
2022-11-06T20:15:51.395Z,0.80
2022-11-06T20:18:23.657Z,0.50
2022-11-06T20:20:57.113Z,0.53
2022-11-06T20:23:35.213Z,0.80
2022-11-06T20:26:07.545Z,0.70
2022-11-06T20:28:40.372Z,0.50
2022-11-06T20:31:17.682Z,0.70
2022-11-06T20:33:50.005Z,0.70
2022-11-06T20:36:26.042Z,0.60
2022-11-06T20:39:01.162Z,0.70
2022-11-06T20:41:35.820Z,0.50
2022-11-06T20:44:06.938Z,0.80
2022-11-06T20:46:42.017Z,0.60
2022-11-06T20:49:13.642Z,0.70
2022-11-06T20:52:12.204Z,0.60
2022-11-06T20:54:43.732Z,0.67
2022-11-06T20:57:17.907Z,1.80
2022-11-06T20:59:50.095Z,1.30
2022-11-06T21:02:24.208Z,0.97
2022-11-06T21:04:55.837Z,0.80
2022-11-06T21:07:27.966Z,1.03
2022-11-06T21:09:59.223Z,1.00
2022-11-06T21:12:31.169Z,1.03
2022-11-06T21:15:03.104Z,1.10
2022-11-06T21:17:37.101Z,0.80
2022-11-06T21:20:09.806Z,0.80
2022-11-06T21:22:40.901Z,1.00
2022-11-06T21:25:13.975Z,0.83
2022-11-06T21:27:44.988Z,0.77
2022-11-06T21:30:19.231Z,1.13
2022-11-06T21:32:52.337Z,0.63
2022-11-06T21:35:23.741Z,0.87
2022-11-06T21:37:55.386Z,1.00
2022-11-06T21:40:30.769Z,1.17
2022-11-06T21:43:05.630Z,0.97
2022-11-06T21:45:38.239Z,1.37
2022-11-06T21:48:25.919Z,1.47
2022-11-06T21:51:11.102Z,1.07
2022-11-06T21:54:01.905Z,0.77
2022-11-06T21:56:34.682Z,1.00
2022-11-06T21:59:10.216Z,0.83
2022-11-06T22:01:45.882Z,0.70
2022-11-06T22:04:19.831Z,0.90
2022-11-06T22:06:53.288Z,0.80
2022-11-06T22:09:25.792Z,0.80
2022-11-06T22:11:57.200Z,0.80
2022-11-06T22:14:41.388Z,1.00
2022-11-06T22:17:16.958Z,0.90
2022-11-06T22:19:50.882Z,0.90
2022-11-06T22:22:21.964Z,0.80
2022-11-06T22:24:56.818Z,0.90
2022-11-06T22:27:31.242Z,1.00
2022-11-06T22:30:04.903Z,0.87
2022-11-06T22:32:40.168Z,0.70
2022-11-06T22:35:17.377Z,1.30
2022-11-06T22:37:48.589Z,1.10
2022-11-06T22:40:19.716Z,1.07
2022-11-06T22:42:51.575Z,0.70
2022-11-06T22:45:22.829Z,0.93
2022-11-06T22:47:54.271Z,1.10
2022-11-06T22:50:27.789Z,1.20
2022-11-06T22:52:59.268Z,0.97
2022-11-06T22:55:30.512Z,1.10
2022-11-06T22:58:04.462Z,0.90
2022-11-06T23:00:35.612Z,1.20
2022-11-06T23:03:06.753Z,1.20
2022-11-06T23:05:43.354Z,0.83
2022-11-06T23:08:17.687Z,1.10
2022-11-06T23:10:50.262Z,0.90
2022-11-06T23:13:21.426Z,0.90
2022-11-06T23:15:52.950Z,1.00
2022-11-06T23:18:27.417Z,0.70
2022-11-06T23:21:17.933Z,1.00
2022-11-06T23:23:51.688Z,1.40
2022-11-06T23:26:25.914Z,1.20
2022-11-06T23:28:58.616Z,1.77
2022-11-06T23:31:36.214Z,1.33
2022-11-06T23:34:07.705Z,1.20
2022-11-06T23:36:40.712Z,1.10
2022-11-06T23:39:11.827Z,1.23
2022-11-06T23:41:46.541Z,1.20
2022-11-06T23:44:35.445Z,1.20
2022-11-06T23:47:06.553Z,0.90
2022-11-06T23:49:38.365Z,1.00
2022-11-06T23:52:11.540Z,1.10
2022-11-06T23:54:43.430Z,1.20
2022-11-06T23:57:16.886Z,1.33
2022-11-06T23:59:47.988Z,1.10
